sensor_id;sensor_type;location;lat;lon;timestamp;temperature;humidity
7876;DHT22;69649;53.712;9.680;2023-06-22T00:00:58;17.00;68.80
7876;DHT22;69649;53.712;9.680;2023-06-22T00:03:25;16.90;69.00
7876;DHT22;69649;53.712;9.680;2023-06-22T00:05:53;16.90;69.20
7876;DHT22;69649;53.712;9.680;2023-06-22T00:08:19;16.90;69.30
7876;DHT22;69649;53.712;9.680;2023-06-22T00:10:48;16.90;69.50
7876;DHT22;69649;53.712;9.680;2023-06-22T00:13:14;16.90;69.60
7876;DHT22;69649;53.712;9.680;2023-06-22T00:15:41;16.90;69.60
7876;DHT22;69649;53.712;9.680;2023-06-22T00:18:08;16.90;69.80
7876;DHT22;69649;53.712;9.680;2023-06-22T00:20:34;16.90;69.70
7876;DHT22;69649;53.712;9.680;2023-06-22T00:23:06;16.90;69.70
7876;DHT22;69649;53.712;9.680;2023-06-22T00:25:38;16.90;69.80
7876;DHT22;69649;53.712;9.680;2023-06-22T00:28:05;16.90;69.70
7876;DHT22;69649;53.712;9.680;2023-06-22T00:30:32;16.90;69.70
7876;DHT22;69649;53.712;9.680;2023-06-22T00:32:58;16.90;69.80
7876;DHT22;69649;53.712;9.680;2023-06-22T00:35:26;16.90;70.00
7876;DHT22;69649;53.712;9.680;2023-06-22T00:37:59;16.90;70.20
7876;DHT22;69649;53.712;9.680;2023-06-22T00:40:31;17.00;70.40
7876;DHT22;69649;53.712;9.680;2023-06-22T00:42:58;17.00;70.30
7876;DHT22;69649;53.712;9.680;2023-06-22T00:45:24;17.00;70.30
7876;DHT22;69649;53.712;9.680;2023-06-22T00:47:52;17.00;70.20
7876;DHT22;69649;53.712;9.680;2023-06-22T00:50:20;17.00;70.20
7876;DHT22;69649;53.712;9.680;2023-06-22T00:52:55;17.00;70.20
7876;DHT22;69649;53.712;9.680;2023-06-22T00:55:25;17.00;70.00
7876;DHT22;69649;53.712;9.680;2023-06-22T00:57:52;17.00;70.00
7876;DHT22;69649;53.712;9.680;2023-06-22T01:00:22;17.00;70.10
7876;DHT22;69649;53.712;9.680;2023-06-22T01:02:52;17.00;70.00
7876;DHT22;69649;53.712;9.680;2023-06-22T01:05:19;17.00;70.30
7876;DHT22;69649;53.712;9.680;2023-06-22T01:11:08;17.10;70.20
7876;DHT22;69649;53.712;9.680;2023-06-22T01:16:20;17.10;70.00
7876;DHT22;69649;53.712;9.680;2023-06-22T01:18:47;17.10;69.90
7876;DHT22;69649;53.712;9.680;2023-06-22T01:21:18;17.10;69.70
7876;DHT22;69649;53.712;9.680;2023-06-22T01:26:38;17.00;70.00
7876;DHT22;69649;53.712;9.680;2023-06-22T01:29:05;17.00;70.10
7876;DHT22;69649;53.712;9.680;2023-06-22T01:31:34;17.10;70.80
7876;DHT22;69649;53.712;9.680;2023-06-22T01:34:03;17.20;70.90
7876;DHT22;69649;53.712;9.680;2023-06-22T01:36:31;17.10;70.60
7876;DHT22;69649;53.712;9.680;2023-06-22T01:38:58;17.10;69.80
7876;DHT22;69649;53.712;9.680;2023-06-22T01:41:29;17.20;70.70
7876;DHT22;69649;53.712;9.680;2023-06-22T01:43:56;17.20;70.90
7876;DHT22;69649;53.712;9.680;2023-06-22T01:46:22;17.20;71.10
7876;DHT22;69649;53.712;9.680;2023-06-22T01:48:51;17.20;71.20
7876;DHT22;69649;53.712;9.680;2023-06-22T01:51:17;17.10;71.30
7876;DHT22;69649;53.712;9.680;2023-06-22T01:53:43;17.10;71.20
7876;DHT22;69649;53.712;9.680;2023-06-22T01:56:09;17.10;71.40
7876;DHT22;69649;53.712;9.680;2023-06-22T01:58:37;17.10;71.30
7876;DHT22;69649;53.712;9.680;2023-06-22T02:01:12;17.00;71.50
7876;DHT22;69649;53.712;9.680;2023-06-22T02:03:48;17.00;71.40
7876;DHT22;69649;53.712;9.680;2023-06-22T02:06:17;17.10;71.30
7876;DHT22;69649;53.712;9.680;2023-06-22T02:08:49;17.10;71.10
7876;DHT22;69649;53.712;9.680;2023-06-22T02:11:18;17.10;71.30
7876;DHT22;69649;53.712;9.680;2023-06-22T02:13:46;17.20;71.20
7876;DHT22;69649;53.712;9.680;2023-06-22T02:16:13;17.10;71.20
7876;DHT22;69649;53.712;9.680;2023-06-22T02:18:51;17.10;71.20
7876;DHT22;69649;53.712;9.680;2023-06-22T02:21:09;17.00;71.20
7876;DHT22;69649;53.712;9.680;2023-06-22T02:23:35;17.00;71.30
7876;DHT22;69649;53.712;9.680;2023-06-22T02:26:02;17.00;71.30
7876;DHT22;69649;53.712;9.680;2023-06-22T02:28:28;17.00;71.10
7876;DHT22;69649;53.712;9.680;2023-06-22T02:30:54;17.00;71.10
7876;DHT22;69649;53.712;9.680;2023-06-22T02:33:20;17.00;71.00
7876;DHT22;69649;53.712;9.680;2023-06-22T02:35:46;17.00;70.90
7876;DHT22;69649;53.712;9.680;2023-06-22T02:38:15;17.00;70.80
7876;DHT22;69649;53.712;9.680;2023-06-22T02:40:41;17.00;70.90
7876;DHT22;69649;53.712;9.680;2023-06-22T02:43:06;16.90;70.90
7876;DHT22;69649;53.712;9.680;2023-06-22T02:45:32;16.90;70.90
7876;DHT22;69649;53.712;9.680;2023-06-22T02:47:58;16.90;70.80
7876;DHT22;69649;53.712;9.680;2023-06-22T02:50:24;16.90;71.20
7876;DHT22;69649;53.712;9.680;2023-06-22T02:52:50;16.80;71.00
7876;DHT22;69649;53.712;9.680;2023-06-22T02:55:16;16.80;71.10
7876;DHT22;69649;53.712;9.680;2023-06-22T02:57:41;16.80;71.10
7876;DHT22;69649;53.712;9.680;2023-06-22T03:00:10;16.80;70.80
7876;DHT22;69649;53.712;9.680;2023-06-22T03:02:46;16.70;70.60
7876;DHT22;69649;53.712;9.680;2023-06-22T03:05:14;16.70;71.10
7876;DHT22;69649;53.712;9.680;2023-06-22T03:07:40;16.70;71.20
7876;DHT22;69649;53.712;9.680;2023-06-22T03:10:09;16.60;71.20
7876;DHT22;69649;53.712;9.680;2023-06-22T03:12:36;16.60;71.40
7876;DHT22;69649;53.712;9.680;2023-06-22T03:15:02;16.50;71.40
7876;DHT22;69649;53.712;9.680;2023-06-22T03:17:28;16.50;71.40
7876;DHT22;69649;53.712;9.680;2023-06-22T03:19:54;16.50;71.40
7876;DHT22;69649;53.712;9.680;2023-06-22T03:22:20;16.50;71.40
7876;DHT22;69649;53.712;9.680;2023-06-22T03:24:45;16.40;71.30
7876;DHT22;69649;53.712;9.680;2023-06-22T03:27:11;16.40;71.50
7876;DHT22;69649;53.712;9.680;2023-06-22T03:29:37;16.40;71.60
7876;DHT22;69649;53.712;9.680;2023-06-22T03:32:03;16.40;71.60
7876;DHT22;69649;53.712;9.680;2023-06-22T03:34:31;16.40;71.60
7876;DHT22;69649;53.712;9.680;2023-06-22T03:36:59;16.40;71.70
7876;DHT22;69649;53.712;9.680;2023-06-22T03:39:25;16.40;71.50
7876;DHT22;69649;53.712;9.680;2023-06-22T03:41:51;16.40;71.50
7876;DHT22;69649;53.712;9.680;2023-06-22T03:44:16;16.40;71.60
7876;DHT22;69649;53.712;9.680;2023-06-22T03:46:42;16.40;71.60
7876;DHT22;69649;53.712;9.680;2023-06-22T03:49:08;16.40;71.60
7876;DHT22;69649;53.712;9.680;2023-06-22T03:51:34;16.50;71.70
7876;DHT22;69649;53.712;9.680;2023-06-22T03:53:59;16.50;71.60
7876;DHT22;69649;53.712;9.680;2023-06-22T03:56:25;16.50;71.40
7876;DHT22;69649;53.712;9.680;2023-06-22T03:58:51;16.50;71.50
7876;DHT22;69649;53.712;9.680;2023-06-22T04:01:17;16.60;71.70
7876;DHT22;69649;53.712;9.680;2023-06-22T04:03:43;16.60;71.70
7876;DHT22;69649;53.712;9.680;2023-06-22T04:06:09;16.70;71.70
7876;DHT22;69649;53.712;9.680;2023-06-22T04:08:35;16.70;72.00
7876;DHT22;69649;53.712;9.680;2023-06-22T04:11:03;16.70;71.90
7876;DHT22;69649;53.712;9.680;2023-06-22T04:13:29;16.70;72.00
7876;DHT22;69649;53.712;9.680;2023-06-22T04:15:55;16.80;72.00
7876;DHT22;69649;53.712;9.680;2023-06-22T04:18:20;16.80;72.10
7876;DHT22;69649;53.712;9.680;2023-06-22T04:20:46;16.90;72.10
7876;DHT22;69649;53.712;9.680;2023-06-22T04:23:12;16.90;72.20
7876;DHT22;69649;53.712;9.680;2023-06-22T04:25:39;17.00;71.90
7876;DHT22;69649;53.712;9.680;2023-06-22T04:28:05;17.00;71.80
7876;DHT22;69649;53.712;9.680;2023-06-22T04:30:32;17.10;71.90
7876;DHT22;69649;53.712;9.680;2023-06-22T04:32:58;17.20;71.60
7876;DHT22;69649;53.712;9.680;2023-06-22T04:35:24;17.20;71.30
7876;DHT22;69649;53.712;9.680;2023-06-22T04:37:50;17.20;71.00
7876;DHT22;69649;53.712;9.680;2023-06-22T04:40:18;17.30;70.70
7876;DHT22;69649;53.712;9.680;2023-06-22T04:42:45;17.30;70.80
7876;DHT22;69649;53.712;9.680;2023-06-22T04:45:13;17.40;70.70
7876;DHT22;69649;53.712;9.680;2023-06-22T04:47:38;17.40;71.00
7876;DHT22;69649;53.712;9.680;2023-06-22T04:50:05;17.50;71.00
7876;DHT22;69649;53.712;9.680;2023-06-22T04:52:31;17.50;70.80
7876;DHT22;69649;53.712;9.680;2023-06-22T04:54:56;17.60;70.90
7876;DHT22;69649;53.712;9.680;2023-06-22T04:57:24;17.80;70.30
7876;DHT22;69649;53.712;9.680;2023-06-22T04:59:52;17.80;70.40
7876;DHT22;69649;53.712;9.680;2023-06-22T05:02:17;17.90;69.60
7876;DHT22;69649;53.712;9.680;2023-06-22T05:04:43;17.90;69.70
7876;DHT22;69649;53.712;9.680;2023-06-22T05:07:09;18.00;69.80
7876;DHT22;69649;53.712;9.680;2023-06-22T05:09:35;18.00;69.30
7876;DHT22;69649;53.712;9.680;2023-06-22T05:12:02;18.10;69.30
7876;DHT22;69649;53.712;9.680;2023-06-22T05:14:29;18.20;68.50
7876;DHT22;69649;53.712;9.680;2023-06-22T05:16:55;18.30;68.80
7876;DHT22;69649;53.712;9.680;2023-06-22T05:19:23;18.30;69.00
7876;DHT22;69649;53.712;9.680;2023-06-22T05:21:48;18.40;68.70
7876;DHT22;69649;53.712;9.680;2023-06-22T05:24:14;18.40;68.70
7876;DHT22;69649;53.712;9.680;2023-06-22T05:26:40;18.50;68.70
7876;DHT22;69649;53.712;9.680;2023-06-22T05:29:06;18.50;68.70
7876;DHT22;69649;53.712;9.680;2023-06-22T05:31:32;18.50;68.70
7876;DHT22;69649;53.712;9.680;2023-06-22T05:33:58;18.50;68.60
7876;DHT22;69649;53.712;9.680;2023-06-22T05:36:25;18.50;68.60
7876;DHT22;69649;53.712;9.680;2023-06-22T05:38:52;18.50;68.90
7876;DHT22;69649;53.712;9.680;2023-06-22T05:41:18;18.60;69.00
7876;DHT22;69649;53.712;9.680;2023-06-22T05:43:43;18.60;68.70
7876;DHT22;69649;53.712;9.680;2023-06-22T05:46:09;18.60;68.70
7876;DHT22;69649;53.712;9.680;2023-06-22T05:48:35;18.60;68.60
7876;DHT22;69649;53.712;9.680;2023-06-22T05:51:01;18.70;68.50
7876;DHT22;69649;53.712;9.680;2023-06-22T05:53:26;18.70;68.70
7876;DHT22;69649;53.712;9.680;2023-06-22T05:55:52;18.80;68.60
7876;DHT22;69649;53.712;9.680;2023-06-22T05:58:18;18.90;68.50
7876;DHT22;69649;53.712;9.680;2023-06-22T06:00:44;19.00;68.50
7876;DHT22;69649;53.712;9.680;2023-06-22T06:03:11;19.00;68.20
7876;DHT22;69649;53.712;9.680;2023-06-22T06:05:37;19.00;68.00
7876;DHT22;69649;53.712;9.680;2023-06-22T06:08:05;19.00;67.90
7876;DHT22;69649;53.712;9.680;2023-06-22T06:10:40;19.00;68.10
7876;DHT22;69649;53.712;9.680;2023-06-22T06:13:06;19.00;67.90
7876;DHT22;69649;53.712;9.680;2023-06-22T06:15:33;19.00;67.70
7876;DHT22;69649;53.712;9.680;2023-06-22T06:17:59;19.00;67.10
7876;DHT22;69649;53.712;9.680;2023-06-22T06:20:26;19.10;67.20
7876;DHT22;69649;53.712;9.680;2023-06-22T06:22:54;19.10;67.00
7876;DHT22;69649;53.712;9.680;2023-06-22T06:25:20;19.10;66.80
7876;DHT22;69649;53.712;9.680;2023-06-22T06:27:48;19.20;67.00
7876;DHT22;69649;53.712;9.680;2023-06-22T06:30:16;19.30;66.90
7876;DHT22;69649;53.712;9.680;2023-06-22T06:32:43;19.50;66.10
7876;DHT22;69649;53.712;9.680;2023-06-22T06:35:11;19.60;66.10
7876;DHT22;69649;53.712;9.680;2023-06-22T06:37:40;19.70;66.10
7876;DHT22;69649;53.712;9.680;2023-06-22T06:40:07;19.90;64.40
7876;DHT22;69649;53.712;9.680;2023-06-22T06:42:38;20.00;64.30
7876;DHT22;69649;53.712;9.680;2023-06-22T06:45:07;20.00;62.10
7876;DHT22;69649;53.712;9.680;2023-06-22T06:47:33;20.00;62.00
7876;DHT22;69649;53.712;9.680;2023-06-22T06:50:06;20.20;62.60
7876;DHT22;69649;53.712;9.680;2023-06-22T06:52:32;20.40;62.40
7876;DHT22;69649;53.712;9.680;2023-06-22T06:54:59;20.50;61.90
7876;DHT22;69649;53.712;9.680;2023-06-22T06:57:25;20.70;62.50
7876;DHT22;69649;53.712;9.680;2023-06-22T06:59:53;20.90;61.30
7876;DHT22;69649;53.712;9.680;2023-06-22T07:02:19;21.10;61.60
7876;DHT22;69649;53.712;9.680;2023-06-22T07:04:45;21.20;61.60
7876;DHT22;69649;53.712;9.680;2023-06-22T07:07:12;21.40;61.30
7876;DHT22;69649;53.712;9.680;2023-06-22T07:09:38;21.50;61.20
7876;DHT22;69649;53.712;9.680;2023-06-22T07:12:04;21.70;60.50
7876;DHT22;69649;53.712;9.680;2023-06-22T07:14:30;21.70;60.80
7876;DHT22;69649;53.712;9.680;2023-06-22T07:16:57;21.70;60.40
7876;DHT22;69649;53.712;9.680;2023-06-22T07:19:27;21.80;60.10
7876;DHT22;69649;53.712;9.680;2023-06-22T07:21:54;21.90;60.00
7876;DHT22;69649;53.712;9.680;2023-06-22T07:24:21;21.90;59.70
7876;DHT22;69649;53.712;9.680;2023-06-22T07:26:47;22.00;59.20
7876;DHT22;69649;53.712;9.680;2023-06-22T07:29:16;22.20;58.10
7876;DHT22;69649;53.712;9.680;2023-06-22T07:31:42;22.20;56.30
7876;DHT22;69649;53.712;9.680;2023-06-22T07:34:08;22.30;57.30
7876;DHT22;69649;53.712;9.680;2023-06-22T07:36:34;22.30;57.90
7876;DHT22;69649;53.712;9.680;2023-06-22T07:39:02;22.30;58.00
7876;DHT22;69649;53.712;9.680;2023-06-22T07:41:28;22.50;57.20
7876;DHT22;69649;53.712;9.680;2023-06-22T07:43:55;22.60;54.80
7876;DHT22;69649;53.712;9.680;2023-06-22T07:46:21;22.50;55.50
7876;DHT22;69649;53.712;9.680;2023-06-22T07:48:46;22.60;55.40
7876;DHT22;69649;53.712;9.680;2023-06-22T07:51:12;22.80;55.50
7876;DHT22;69649;53.712;9.680;2023-06-22T07:53:40;23.00;56.00
7876;DHT22;69649;53.712;9.680;2023-06-22T07:56:06;23.20;56.70
7876;DHT22;69649;53.712;9.680;2023-06-22T07:58:38;23.40;55.50
7876;DHT22;69649;53.712;9.680;2023-06-22T08:01:04;23.50;54.50
7876;DHT22;69649;53.712;9.680;2023-06-22T08:03:30;23.60;55.60
7876;DHT22;69649;53.712;9.680;2023-06-22T08:05:55;23.60;55.50
7876;DHT22;69649;53.712;9.680;2023-06-22T08:08:21;23.80;55.90
7876;DHT22;69649;53.712;9.680;2023-06-22T08:10:47;23.90;55.70
7876;DHT22;69649;53.712;9.680;2023-06-22T08:13:16;24.00;55.30
7876;DHT22;69649;53.712;9.680;2023-06-22T08:15:42;24.10;55.40
7876;DHT22;69649;53.712;9.680;2023-06-22T08:18:08;24.20;54.70
7876;DHT22;69649;53.712;9.680;2023-06-22T08:20:34;24.30;54.80
7876;DHT22;69649;53.712;9.680;2023-06-22T08:23:00;24.40;54.90
7876;DHT22;69649;53.712;9.680;2023-06-22T08:25:27;24.50;55.10
7876;DHT22;69649;53.712;9.680;2023-06-22T08:27:53;24.60;54.50
7876;DHT22;69649;53.712;9.680;2023-06-22T08:30:19;24.60;53.90
7876;DHT22;69649;53.712;9.680;2023-06-22T08:32:45;24.60;54.00
7876;DHT22;69649;53.712;9.680;2023-06-22T08:35:10;24.70;54.40
7876;DHT22;69649;53.712;9.680;2023-06-22T08:37:36;24.80;54.20
7876;DHT22;69649;53.712;9.680;2023-06-22T08:40:07;24.90;53.60
7876;DHT22;69649;53.712;9.680;2023-06-22T08:42:35;24.80;52.40
7876;DHT22;69649;53.712;9.680;2023-06-22T08:45:01;24.60;53.90
7876;DHT22;69649;53.712;9.680;2023-06-22T08:47:30;25.00;55.80
7876;DHT22;69649;53.712;9.680;2023-06-22T08:49:55;25.10;54.60
7876;DHT22;69649;53.712;9.680;2023-06-22T08:52:22;25.20;53.20
7876;DHT22;69649;53.712;9.680;2023-06-22T08:54:49;25.30;51.90
7876;DHT22;69649;53.712;9.680;2023-06-22T08:57:15;25.20;52.50
7876;DHT22;69649;53.712;9.680;2023-06-22T08:59:42;25.30;52.00
7876;DHT22;69649;53.712;9.680;2023-06-22T09:02:08;25.30;54.00
7876;DHT22;69649;53.712;9.680;2023-06-22T09:04:33;25.50;53.40
7876;DHT22;69649;53.712;9.680;2023-06-22T09:07:01;25.60;51.20
7876;DHT22;69649;53.712;9.680;2023-06-22T09:09:27;25.70;52.60
7876;DHT22;69649;53.712;9.680;2023-06-22T09:11:52;26.00;52.50
7876;DHT22;69649;53.712;9.680;2023-06-22T09:14:18;26.20;52.10
7876;DHT22;69649;53.712;9.680;2023-06-22T09:16:44;26.40;51.70
7876;DHT22;69649;53.712;9.680;2023-06-22T09:19:10;26.50;50.50
7876;DHT22;69649;53.712;9.680;2023-06-22T09:21:36;26.60;49.90
7876;DHT22;69649;53.712;9.680;2023-06-22T09:24:03;26.70;50.00
7876;DHT22;69649;53.712;9.680;2023-06-22T09:26:29;26.60;51.80
7876;DHT22;69649;53.712;9.680;2023-06-22T09:29:15;26.40;50.20
7876;DHT22;69649;53.712;9.680;2023-06-22T09:31:41;26.40;49.90
7876;DHT22;69649;53.712;9.680;2023-06-22T09:34:07;26.50;50.70
7876;DHT22;69649;53.712;9.680;2023-06-22T09:36:32;26.70;51.20
7876;DHT22;69649;53.712;9.680;2023-06-22T09:38:58;27.00;50.40
7876;DHT22;69649;53.712;9.680;2023-06-22T09:41:24;27.00;50.40
7876;DHT22;69649;53.712;9.680;2023-06-22T09:43:50;27.00;49.70
7876;DHT22;69649;53.712;9.680;2023-06-22T09:46:16;27.00;50.50
7876;DHT22;69649;53.712;9.680;2023-06-22T09:48:42;27.20;50.90
7876;DHT22;69649;53.712;9.680;2023-06-22T09:51:08;27.50;50.20
7876;DHT22;69649;53.712;9.680;2023-06-22T09:53:34;27.50;50.40
7876;DHT22;69649;53.712;9.680;2023-06-22T09:56:01;27.60;49.80
7876;DHT22;69649;53.712;9.680;2023-06-22T09:58:27;27.60;49.80
7876;DHT22;69649;53.712;9.680;2023-06-22T10:00:53;27.70;48.70
7876;DHT22;69649;53.712;9.680;2023-06-22T10:03:20;27.50;49.00
7876;DHT22;69649;53.712;9.680;2023-06-22T10:05:46;27.70;50.00
7876;DHT22;69649;53.712;9.680;2023-06-22T10:08:12;27.80;49.40
7876;DHT22;69649;53.712;9.680;2023-06-22T10:10:38;27.90;50.20
7876;DHT22;69649;53.712;9.680;2023-06-22T10:13:08;27.80;49.30
7876;DHT22;69649;53.712;9.680;2023-06-22T10:15:36;27.80;48.60
7876;DHT22;69649;53.712;9.680;2023-06-22T10:18:02;27.90;49.50
7876;DHT22;69649;53.712;9.680;2023-06-22T10:20:28;27.90;50.30
7876;DHT22;69649;53.712;9.680;2023-06-22T10:22:54;28.00;49.60
7876;DHT22;69649;53.712;9.680;2023-06-22T10:25:21;28.10;49.50
7876;DHT22;69649;53.712;9.680;2023-06-22T10:27:48;28.50;49.20
7876;DHT22;69649;53.712;9.680;2023-06-22T10:30:14;28.60;49.70
7876;DHT22;69649;53.712;9.680;2023-06-22T10:32:41;28.80;48.70
7876;DHT22;69649;53.712;9.680;2023-06-22T10:35:08;28.80;46.80
7876;DHT22;69649;53.712;9.680;2023-06-22T10:37:36;28.60;47.50
7876;DHT22;69649;53.712;9.680;2023-06-22T10:40:03;28.60;49.10
7876;DHT22;69649;53.712;9.680;2023-06-22T10:42:29;28.90;48.90
7876;DHT22;69649;53.712;9.680;2023-06-22T10:44:55;29.00;49.00
7876;DHT22;69649;53.712;9.680;2023-06-22T10:47:21;29.00;48.70
7876;DHT22;69649;53.712;9.680;2023-06-22T10:49:47;29.20;48.40
7876;DHT22;69649;53.712;9.680;2023-06-22T10:52:12;29.40;48.10
7876;DHT22;69649;53.712;9.680;2023-06-22T10:54:38;29.50;46.40
7876;DHT22;69649;53.712;9.680;2023-06-22T10:57:04;29.60;47.10
7876;DHT22;69649;53.712;9.680;2023-06-22T10:59:30;29.70;46.70
7876;DHT22;69649;53.712;9.680;2023-06-22T11:01:56;29.80;46.30
7876;DHT22;69649;53.712;9.680;2023-06-22T11:04:32;30.00;45.90
7876;DHT22;69649;53.712;9.680;2023-06-22T11:06:57;30.10;46.20
7876;DHT22;69649;53.712;9.680;2023-06-22T11:09:23;30.20;46.90
7876;DHT22;69649;53.712;9.680;2023-06-22T11:11:51;30.10;46.50
7876;DHT22;69649;53.712;9.680;2023-06-22T11:14:20;29.70;47.20
7876;DHT22;69649;53.712;9.680;2023-06-22T11:16:46;29.20;46.30
7876;DHT22;69649;53.712;9.680;2023-06-22T11:19:12;28.70;47.80
7876;DHT22;69649;53.712;9.680;2023-06-22T11:21:38;28.50;48.60
7876;DHT22;69649;53.712;9.680;2023-06-22T11:24:04;28.40;48.90
7876;DHT22;69649;53.712;9.680;2023-06-22T11:26:30;28.30;48.90
7876;DHT22;69649;53.712;9.680;2023-06-22T11:28:57;28.30;48.30
7876;DHT22;69649;53.712;9.680;2023-06-22T11:31:24;28.40;48.80
7876;DHT22;69649;53.712;9.680;2023-06-22T11:33:50;28.30;47.90
7876;DHT22;69649;53.712;9.680;2023-06-22T11:36:16;28.10;48.00
7876;DHT22;69649;53.712;9.680;2023-06-22T11:38:43;28.30;48.10
7876;DHT22;69649;53.712;9.680;2023-06-22T11:41:09;28.20;48.10
7876;DHT22;69649;53.712;9.680;2023-06-22T11:43:36;28.10;47.80
7876;DHT22;69649;53.712;9.680;2023-06-22T11:46:03;28.10;48.00
7876;DHT22;69649;53.712;9.680;2023-06-22T11:48:29;28.00;49.00
7876;DHT22;69649;53.712;9.680;2023-06-22T11:50:55;28.30;49.20
7876;DHT22;69649;53.712;9.680;2023-06-22T11:53:26;28.50;49.20
7876;DHT22;69649;53.712;9.680;2023-06-22T11:55:52;28.80;49.60
7876;DHT22;69649;53.712;9.680;2023-06-22T11:58:19;29.20;48.40
7876;DHT22;69649;53.712;9.680;2023-06-22T12:00:45;29.30;47.00
7876;DHT22;69649;53.712;9.680;2023-06-22T12:03:11;29.20;47.00
7876;DHT22;69649;53.712;9.680;2023-06-22T12:05:38;29.30;47.60
7876;DHT22;69649;53.712;9.680;2023-06-22T12:08:04;29.20;46.00
7876;DHT22;69649;53.712;9.680;2023-06-22T12:10:30;28.90;49.70
7876;DHT22;69649;53.712;9.680;2023-06-22T12:12:56;29.20;47.00
7876;DHT22;69649;53.712;9.680;2023-06-22T12:15:23;29.30;48.10
7876;DHT22;69649;53.712;9.680;2023-06-22T12:17:49;29.50;48.40
7876;DHT22;69649;53.712;9.680;2023-06-22T12:20:15;30.00;46.90
7876;DHT22;69649;53.712;9.680;2023-06-22T12:22:41;30.00;45.80
7876;DHT22;69649;53.712;9.680;2023-06-22T12:25:08;30.10;46.80
7876;DHT22;69649;53.712;9.680;2023-06-22T12:27:35;30.10;45.80
7876;DHT22;69649;53.712;9.680;2023-06-22T12:30:02;30.20;48.50
7876;DHT22;69649;53.712;9.680;2023-06-22T12:32:28;30.40;46.70
7876;DHT22;69649;53.712;9.680;2023-06-22T12:34:54;30.30;46.80
7876;DHT22;69649;53.712;9.680;2023-06-22T12:37:20;30.40;47.70
7876;DHT22;69649;53.712;9.680;2023-06-22T12:39:46;30.60;45.60
7876;DHT22;69649;53.712;9.680;2023-06-22T12:42:12;30.60;46.60
7876;DHT22;69649;53.712;9.680;2023-06-22T12:44:38;30.30;47.30
7876;DHT22;69649;53.712;9.680;2023-06-22T12:47:06;30.10;46.60
7876;DHT22;69649;53.712;9.680;2023-06-22T12:49:34;30.00;47.40
7876;DHT22;69649;53.712;9.680;2023-06-22T12:52:01;30.30;48.70
7876;DHT22;69649;53.712;9.680;2023-06-22T12:54:27;30.30;47.40
7876;DHT22;69649;53.712;9.680;2023-06-22T12:56:53;30.00;46.80
7876;DHT22;69649;53.712;9.680;2023-06-22T12:59:19;30.00;47.20
7876;DHT22;69649;53.712;9.680;2023-06-22T13:01:45;30.30;47.20
7876;DHT22;69649;53.712;9.680;2023-06-22T13:04:12;30.50;46.00
7876;DHT22;69649;53.712;9.680;2023-06-22T13:06:42;31.00;46.20
7876;DHT22;69649;53.712;9.680;2023-06-22T13:09:10;31.10;45.90
7876;DHT22;69649;53.712;9.680;2023-06-22T13:11:36;30.80;46.30
7876;DHT22;69649;53.712;9.680;2023-06-22T13:14:02;30.40;46.80
7876;DHT22;69649;53.712;9.680;2023-06-22T13:16:28;30.10;46.40
7876;DHT22;69649;53.712;9.680;2023-06-22T13:18:53;30.50;47.20
7876;DHT22;69649;53.712;9.680;2023-06-22T13:21:19;30.50;45.00
7876;DHT22;69649;53.712;9.680;2023-06-22T13:23:46;30.50;45.80
7876;DHT22;69649;53.712;9.680;2023-06-22T13:26:12;30.70;46.20
7876;DHT22;69649;53.712;9.680;2023-06-22T13:28:38;30.60;46.40
7876;DHT22;69649;53.712;9.680;2023-06-22T13:31:04;30.40;45.50
7876;DHT22;69649;53.712;9.680;2023-06-22T13:33:30;30.10;44.80
7876;DHT22;69649;53.712;9.680;2023-06-22T13:35:55;30.00;46.00
7876;DHT22;69649;53.712;9.680;2023-06-22T13:38:21;30.00;46.30
7876;DHT22;69649;53.712;9.680;2023-06-22T13:40:50;30.10;47.80
7876;DHT22;69649;53.712;9.680;2023-06-22T13:43:16;30.00;47.20
7876;DHT22;69649;53.712;9.680;2023-06-22T13:45:43;30.00;47.20
7876;DHT22;69649;53.712;9.680;2023-06-22T13:48:09;29.90;46.50
7876;DHT22;69649;53.712;9.680;2023-06-22T13:50:35;29.80;47.10
7876;DHT22;69649;53.712;9.680;2023-06-22T13:53:02;29.70;47.20
7876;DHT22;69649;53.712;9.680;2023-06-22T13:55:28;29.50;47.60
7876;DHT22;69649;53.712;9.680;2023-06-22T13:57:54;29.50;47.10
7876;DHT22;69649;53.712;9.680;2023-06-22T14:00:19;29.40;47.30
7876;DHT22;69649;53.712;9.680;2023-06-22T14:02:45;29.40;47.30
7876;DHT22;69649;53.712;9.680;2023-06-22T14:05:11;29.40;47.50
7876;DHT22;69649;53.712;9.680;2023-06-22T14:07:37;29.30;47.90
7876;DHT22;69649;53.712;9.680;2023-06-22T14:10:03;29.30;47.50
7876;DHT22;69649;53.712;9.680;2023-06-22T14:12:30;29.40;47.60
7876;DHT22;69649;53.712;9.680;2023-06-22T14:14:55;29.40;47.80
7876;DHT22;69649;53.712;9.680;2023-06-22T14:17:23;29.30;46.70
7876;DHT22;69649;53.712;9.680;2023-06-22T14:19:51;28.90;47.50
7876;DHT22;69649;53.712;9.680;2023-06-22T14:22:19;28.70;47.80
7876;DHT22;69649;53.712;9.680;2023-06-22T14:24:47;28.90;47.60
7876;DHT22;69649;53.712;9.680;2023-06-22T14:27:13;28.90;47.40
7876;DHT22;69649;53.712;9.680;2023-06-22T14:29:38;29.00;47.50
7876;DHT22;69649;53.712;9.680;2023-06-22T14:32:05;29.10;46.60
7876;DHT22;69649;53.712;9.680;2023-06-22T14:34:32;29.00;46.60
7876;DHT22;69649;53.712;9.680;2023-06-22T14:37:00;29.10;46.40
7876;DHT22;69649;53.712;9.680;2023-06-22T14:39:26;29.50;46.00
7876;DHT22;69649;53.712;9.680;2023-06-22T14:41:52;30.00;45.70
7876;DHT22;69649;53.712;9.680;2023-06-22T14:44:18;30.10;44.80
7876;DHT22;69649;53.712;9.680;2023-06-22T14:46:43;29.70;45.10
7876;DHT22;69649;53.712;9.680;2023-06-22T14:49:09;29.80;45.90
7876;DHT22;69649;53.712;9.680;2023-06-22T14:51:35;30.30;46.50
7876;DHT22;69649;53.712;9.680;2023-06-22T14:54:01;30.50;46.50
7876;DHT22;69649;53.712;9.680;2023-06-22T14:56:26;30.60;45.80
7876;DHT22;69649;53.712;9.680;2023-06-22T14:58:52;30.60;46.80
7876;DHT22;69649;53.712;9.680;2023-06-22T15:01:18;30.80;46.80
7876;DHT22;69649;53.712;9.680;2023-06-22T15:03:44;30.90;45.70
7876;DHT22;69649;53.712;9.680;2023-06-22T15:06:10;30.50;45.80
7876;DHT22;69649;53.712;9.680;2023-06-22T15:08:40;30.30;47.30
7876;DHT22;69649;53.712;9.680;2023-06-22T15:11:07;30.10;47.30
7876;DHT22;69649;53.712;9.680;2023-06-22T15:13:34;29.70;46.00
7876;DHT22;69649;53.712;9.680;2023-06-22T15:16:03;29.50;46.70
7876;DHT22;69649;53.712;9.680;2023-06-22T15:18:31;29.30;46.70
7876;DHT22;69649;53.712;9.680;2023-06-22T15:20:59;29.10;46.80
7876;DHT22;69649;53.712;9.680;2023-06-22T15:23:27;29.00;47.50
7876;DHT22;69649;53.712;9.680;2023-06-22T15:25:55;29.00;47.40
7876;DHT22;69649;53.712;9.680;2023-06-22T15:28:21;29.00;47.90
7876;DHT22;69649;53.712;9.680;2023-06-22T15:30:47;29.10;47.20
7876;DHT22;69649;53.712;9.680;2023-06-22T15:33:14;28.90;47.70
7876;DHT22;69649;53.712;9.680;2023-06-22T15:35:40;28.70;47.90
7876;DHT22;69649;53.712;9.680;2023-06-22T15:38:06;28.60;48.70
7876;DHT22;69649;53.712;9.680;2023-06-22T15:40:31;28.50;48.80
7876;DHT22;69649;53.712;9.680;2023-06-22T15:42:57;28.10;49.30
7876;DHT22;69649;53.712;9.680;2023-06-22T15:45:23;28.10;50.40
7876;DHT22;69649;53.712;9.680;2023-06-22T15:47:48;28.00;49.20
7876;DHT22;69649;53.712;9.680;2023-06-22T15:50:14;27.90;49.30